• Join FlightAware (Why Join?)
  • Login
  • US Flag 
01:28AM EDT


 

Airport Tracker/Info


-or-


 

Live Flight TrackerFlight Track Log ✈ N854CA ✈ 09-May-2013 ✈ KGON - 07FA

Flight Track Log - Related Links

Times and Time Zones

All times are in EDT time to prevent confusion due to time zone crossing. See the N854CA flight status page for this flight to view local times or setup timezone preferences in your user account.

Time Position Orientation Groundspeed Altitude Reporting Facility
EDT Latitude Longitude Course Direction KTS MPH feet Rate Location/Type
03:18PM 41.3139 -72.0339 102° East 152 175 500  Level Boston Center
03:19PM 41.3097 -72.0089 103° East 136 157 1,700 1,860 Climbing Boston Center
03:20PM 41.2947 -71.9594 112° Southeast 140 161 3,200 1,560 Climbing Boston Center
03:21PM 41.2819 -71.9042 107° East 149 171 4,900 1,680 Climbing Boston Center
03:22PM 41.2550 -71.9017 176° South 124 143 6,600 1,680 Climbing Boston Center
03:23PM 41.2258 -71.9322 218° Southwest 125 144 8,300 1,680 Climbing Boston Center
03:24PM 41.1969 -71.9656 221° Southwest 136 157 10,000 1,800 Climbing Boston Center
03:25PM 41.1700 -72.0017 225° Southwest 136 157 11,900 1,800 Climbing Boston Center
03:26PM 41.1389 -72.0378 221° Southwest 136 157 13,700 1,740 Climbing Boston Center
03:27PM 41.1097 -72.0764 225° Southwest 142 163 15,400 1,620 Climbing Boston Center
03:28PM 41.0767 -72.1153 222° Southwest 147 169 17,000 1,440 Climbing Boston Center
03:29PM 41.0392 -72.1622 223° Southwest 165 190 18,300 960 Climbing Boston Center
03:30PM 41.0081 -72.2036 225° Southwest 170 196 19,000 300 Climbing Boston Center
03:31PM 40.9622 -72.2614 224° Southwest 198 228 19,000 180 Level Boston Center
03:32PM 40.9083 -72.3358 226° Southwest 230 265 19,400 1,260 Climbing Boston Center
03:33PM 40.8667 -72.3853 222° Southwest 231 266 21,600 1,800 Climbing Boston Center
03:34PM 40.8269 -72.4319 222° Southwest 212 244 23,000 1,380 Climbing Boston Center
03:35PM 40.7875 -72.4811 223° Southwest 202 232 24,400 1,260 Climbing Boston Center
03:36PM 40.7456 -72.5278 220° Southwest 202 232 25,600 1,080 Climbing Boston Center
03:37PM 40.6997 -72.5686 214° Southwest 208 239 26,600 1,020 Climbing Boston Center
03:38PM 40.6561 -72.6181 221° Southwest 214 246 27,700 600 Climbing Boston Center
03:39PM 40.5956 -72.6833 219° Southwest 227 261 28,000 120 Climbing Boston Center
03:40PM 40.5431 -72.7486 223° Southwest 247 284 28,000  Level Boston Center
03:41PM 40.4847 -72.8111 219° Southwest 265 305 28,000  Level Boston Center
03:42PM 40.4239 -72.8789 220° Southwest 278 320 28,000  Level Boston Center
03:44PM 40.3208 -73.0042 223° Southwest 268 308 28,000  Level Washington Center
03:45PM 40.2661 -73.0686 222° Southwest 268 308 28,000  Level Washington Center
03:46PM 40.2092 -73.1331 221° Southwest 273 314 28,000  Level Washington Center
03:47PM 40.1500 -73.1978 220° Southwest 278 320 28,000  Level Washington Center
03:48PM 40.0950 -73.2619 222° Southwest 278 320 28,000  Level Washington Center
03:49PM 40.0378 -73.3261 221° Southwest 278 320 28,000  Level Washington Center
03:50PM 39.9828 -73.3903 222° Southwest 278 320 28,000  Level Washington Center
03:51PM 39.9236 -73.4517 219° Southwest 278 320 28,000  Level Washington Center
03:52PM 39.8642 -73.5156 220° Southwest 278 320 28,000  Level Washington Center
03:53PM 39.8111 -73.5792 223° Southwest 278 320 28,000  Level Washington Center
03:54PM 39.7517 -73.6428 219° Southwest 278 320 28,000  Level Washington Center
03:55PM 39.6925 -73.7067 220° Southwest 278 320 28,000  Level Washington Center
03:56PM 39.6372 -73.7700 221° Southwest 278 320 28,000  Level Washington Center
03:57PM 39.5797 -73.8333 220° Southwest 278 320 28,000  Level Washington Center
03:58PM 39.5181 -73.8994 220° Southwest 283 326 28,000  Level Washington Center
03:59PM 39.4586 -73.9653 221° Southwest 283 326 28,000  Level Washington Center
04:00PM 39.3969 -74.0311 220° Southwest 283 326 28,000  Level Washington Center
04:01PM 39.3394 -74.0969 222° Southwest 283 326 28,000  Level Washington Center
04:02PM 39.2797 -74.1653 222° Southwest 283 326 28,000  Level Washington Center
04:03PM 39.2203 -74.2281 219° Southwest 283 326 28,000  Level Washington Center
04:04PM 39.1606 -74.2933 220° Southwest 283 326 28,000  Level Washington Center
04:05PM 39.1006 -74.3586 220° Southwest 283 326 28,000  Level Washington Center
04:06PM 39.0389 -74.4239 219° Southwest 283 326 28,000  Level Washington Center
04:07PM 38.9789 -74.4889 220° Southwest 283 326 28,000  Level Washington Center
04:08PM 38.9211 -74.5539 221° Southwest 283 326 28,000  Level Washington Center
04:09PM 38.8592 -74.6186 219° Southwest 283 326 28,000  Level Washington Center
04:10PM 38.7972 -74.6833 219° Southwest 283 326 28,000  Level Washington Center
04:11PM 38.7372 -74.7481 220° Southwest 283 326 28,000  Level Washington Center
04:12PM 38.6750 -74.8153 220° Southwest 283 326 28,000  Level Washington Center
04:13PM 38.6150 -74.8769 219° Southwest 283 326 28,000  Level Washington Center
04:14PM 38.5550 -74.9439 221° Southwest 283 326 28,000  Level Washington Center
04:15PM 38.4928 -75.0108 220° Southwest 283 326 28,000  Level Washington Center
04:16PM 38.4306 -75.0722 218° Southwest 283 326 28,000  Level Washington Center
04:17PM 38.3683 -75.1389 220° Southwest 283 326 28,000  Level Washington Center
04:18PM 38.2997 -75.1894 210° Southwest 289 333 28,000  Level Washington Center
04:19PM 38.2289 -75.2481 213° Southwest 289 333 28,000  Level Washington Center
04:20PM 38.1728 -75.3169 224° Southwest 289 333 28,000  Level Washington Center
04:21PM 38.1228 -75.3858 227° Southwest 284 327 28,000  Level Washington Center
04:22PM 38.0667 -75.4572 225° Southwest 284 327 28,000  Level Washington Center
04:23PM 38.0000 -75.5128 213° Southwest 278 320 28,000  Level Washington Center
04:24PM 37.9311 -75.5681 212° Southwest 294 338 28,000  Level Washington Center
04:25PM 37.8583 -75.6233 211° Southwest 300 345 28,000  Level Washington Center
04:26PM 37.7872 -75.6733 209° Southwest 300 345 28,000  Level Washington Center
04:27PM 37.7164 -75.7258 210° Southwest 300 345 28,000  Level Washington Center
04:28PM 37.6475 -75.7781 211° Southwest 300 345 28,000  Level Washington Center
04:29PM 37.5764 -75.8328 211° Southwest 300 345 28,000  Level Washington Center
04:30PM 37.5014 -75.8797 206° Southwest 300 345 28,000  Level Washington Center
04:31PM 37.4239 -75.9214 203° Southwest 300 345 28,000  Level Washington Center
04:32PM 37.3467 -75.9628 203° Southwest 300 345 28,000  Level Washington Center
04:33PM 37.2714 -76.0042 204° Southwest 300 345 28,000  Level Washington Center
04:34PM 37.1942 -76.0456 203° Southwest 300 345 28,000  Level Washington Center
04:35PM 37.1167 -76.0867 203° Southwest 300 345 28,000  Level Washington Center
04:36PM 37.0394 -76.1278 203° Southwest 300 345 28,000  Level Washington Center
04:37PM 36.9517 -76.1689 201° Southwest 300 345 28,000  Level Washington Center
04:38PM 36.8742 -76.2097 203° Southwest 306 352 28,000  Level Washington Center
04:39PM 36.7967 -76.2508 203° Southwest 306 352 28,000  Level Washington Center
04:40PM 36.7214 -76.2967 206° Southwest 306 352 28,000  Level Washington Center
04:41PM 36.6481 -76.3400 205° Southwest 300 345 28,000  Level Washington Center
04:42PM 36.5706 -76.3833 204° Southwest 300 345 28,000  Level Washington Center
04:43PM 36.4933 -76.4239 203° Southwest 300 345 28,000  Level Washington Center
04:44PM 36.4158 -76.4644 203° Southwest 300 345 28,000  Level Washington Center
04:45PM 36.3403 -76.5072 205° Southwest 300 345 28,000  Level Washington Center
04:46PM 36.2628 -76.5478 203° Southwest 300 345 28,000  Level Washington Center
04:47PM 36.1853 -76.5881 203° Southwest 300 345 28,000  Level Washington Center
04:48PM 36.1097 -76.6306 204° Southwest 300 345 28,000  Level Washington Center
04:49PM 36.0364 -76.6708 204° Southwest 300 345 28,000  Level Washington Center
04:50PM 35.9608 -76.7108 203° Southwest 300 345 28,000  Level Washington Center
04:51PM 35.8833 -76.7558 205° Southwest 300 345 28,000  Level Washington Center
04:52PM 35.8078 -76.7933 202° Southwest 300 345 28,000  Level Washington Center
04:53PM 35.7322 -76.8356 204° Southwest 300 345 28,000  Level Washington Center
04:54PM 35.6567 -76.8753 203° Southwest 295 339 28,000  Level Washington Center
04:55PM 35.5917 -76.9125 205° Southwest 295 339 28,000  Level Washington Center
04:56PM 35.5119 -76.9547 203° Southwest 300 345 28,000  Level Washington Center
04:57PM 35.4364 -76.9967 204° Southwest 300 345 28,000  Level Washington Center
04:58PM 35.3586 -77.0361 202° Southwest 300 345 28,000  Level Washington Center
04:59PM 35.2831 -77.0756 203° Southwest 300 345 28,000  Level Washington Center
05:00PM 35.2053 -77.1172 204° Southwest 300 345 28,000  Level Washington Center
05:01PM 35.1297 -77.1589 204° Southwest 300 345 28,000  Level Washington Center
05:02PM 35.0542 -77.1981 203° Southwest 295 339 28,000  Level Washington Center
05:03PM 34.9806 -77.2372 204° Southwest 295 339 28,000  Level Washington Center
05:04PM 34.9028 -77.2761 202° Southwest 295 339 28,000  Level Washington Center
05:05PM 34.8186 -77.3250 205° Southwest 300 345 28,000  Level Washington Center
05:06PM 34.7431 -77.3614 202° Southwest 295 339 28,000  Level Washington Center
05:07PM 34.6672 -77.4025 204° Southwest 295 339 28,000  Level Washington Center
05:08PM 34.5894 -77.4439 204° Southwest 295 339 28,000  Level Washington Center
05:09PM 34.5075 -77.4722 196° South 301 346 28,000  Level Washington Center
05:10PM 34.4258 -77.4931 192° South 301 346 28,000  Level Washington Center
05:11PM 34.3419 -77.5161 193° South 306 352 28,000  Level Washington Center
05:12PM 34.2583 -77.5394 193° South 306 352 28,000  Level Washington Center
05:13PM 34.1764 -77.5600 192° South 306 352 28,000  Level Washington Center
05:14PM 34.0792 -77.5825 191° South 311 358 28,000  Level Jacksonville Center
05:15PM 33.9947 -77.6078 194° South 305 351 28,000  Level Jacksonville Center
05:16PM 33.9106 -77.6353 195° South 315 362 28,000  Level Jacksonville Center
05:17PM 33.8278 -77.6528 190° South 310 357 28,000  Level Jacksonville Center
05:18PM 33.7433 -77.6778 194° South 330 380 28,000  Level Jacksonville Center
05:19PM 33.6606 -77.6978 191° South 314 361 28,000  Level Jacksonville Center
05:20PM 33.5864 -77.7194 194° South 314 361 28,000  Level Jacksonville Center
05:21PM 33.5061 -77.7467 196° South 314 361 28,000  Level Jacksonville Center
05:22PM 33.4239 -77.7739 195° South 314 361 28,000  Level Jacksonville Center
05:23PM 33.3414 -77.8033 197° South 314 361 28,000  Level Jacksonville Center
05:24PM 33.2611 -77.8278 194° South 314 361 28,000  Level Jacksonville Center
05:25PM 33.1808 -77.8572 197° South 314 361 28,000  Level Jacksonville Center
05:26PM 33.1006 -77.8842 196° South 314 361 28,000  Level Jacksonville Center
05:27PM 33.0181 -77.9108 195° South 314 361 28,000  Level Jacksonville Center
05:28PM 32.9400 -77.9375 196° South 308 354 28,000  Level Jacksonville Center
05:29PM 32.8597 -77.9667 197° South 308 354 28,000  Level Jacksonville Center
05:30PM 32.7772 -77.9933 195° South 308 354 28,000  Level Jacksonville Center
05:31PM 32.6947 -78.0200 195° South 308 354 28,000  Level Jacksonville Center
05:32PM 32.6122 -78.0467 195° South 308 354 28,000  Level Jacksonville Center
05:33PM 32.5319 -78.0756 197° South 308 354 28,000  Level Jacksonville Center
05:34PM 32.4494 -78.1022 195° South 308 354 28,000  Level Jacksonville Center
05:35PM 32.3669 -78.1286 195° South 308 354 28,000  Level Jacksonville Center
05:36PM 32.2867 -78.1550 196° South 302 348 28,000  Level Jacksonville Center
05:37PM 32.2061 -78.1811 195° South 302 348 28,000  Level Jacksonville Center
05:38PM 32.1217 -78.2075 195° South 302 348 28,000  Level Jacksonville Center
05:39PM 32.0414 -78.2386 198° South 302 348 28,000  Level Jacksonville Center
05:40PM 31.9486 -78.2728 197° South 312 359 28,000  Level Jacksonville Center
05:41PM 31.8661 -78.2989 195° South 312 359 28,000  Level Jacksonville Center
05:42PM 31.7858 -78.3272 197° South 312 359 28,000  Level Jacksonville Center
05:43PM 31.7033 -78.3533 195° South 312 359 28,000  Level Jacksonville Center
05:44PM 31.6208 -78.3817 196° South 312 359 28,000  Level Jacksonville Center
05:45PM 31.5361 -78.4103 196° South 317 365 28,000  Level Jacksonville Center
05:46PM 31.4575 -78.4311 193° South 317 365 28,000  Level Jacksonville Center
05:47PM 31.3731 -78.4619 197° South 317 365 28,000  Level Jacksonville Center
05:48PM 31.2925 -78.4875 195° South 312 359 28,000  Level Jacksonville Center
05:49PM 31.2081 -78.5158 196° South 320 368 28,000  Level Jacksonville Center
05:50PM 31.1275 -78.5414 195° South 313 360 28,000  Level Jacksonville Center
05:51PM 31.0447 -78.5647 194° South 312 359 28,000  Level Jacksonville Center
05:52PM 30.9622 -78.5928 196° South 322 371 28,000  Level Jacksonville Center
05:53PM 30.8817 -78.6206 196° South 311 358 28,000  Level Jacksonville Center
05:54PM 30.7992 -78.6461 195° South 311 358 28,000  Level Jacksonville Center
05:55PM 30.7122 -78.6717 194° South 316 364 28,000  Level Jacksonville Center
05:56PM 30.6294 -78.6969 195° South 316 364 28,000  Level Jacksonville Center
05:57PM 30.5497 -78.7122 189° South 306 352 28,000  Level Miami Center
05:58PM 30.4558 -78.7250 187° South 317 365 28,000  Level Miami Center
05:59PM 30.3783 -78.7406 190° South 312 359 28,000  Level Miami Center
06:00PM 30.2864 -78.7556 188° South 312 359 28,000  Level Miami Center
06:01PM 30.2072 -78.7711 190° South 309 356 28,000  Level Miami Center
06:02PM 30.1189 -78.8103 201° Southwest 312 359 28,000  Level Miami Center
06:03PM 30.0456 -78.8450 202° Southwest 306 352 28,000  Level Miami Center
06:04PM 29.9678 -78.8914 207° Southwest 306 352 28,000  Level Miami Center
06:05PM 29.8881 -78.9281 202° Southwest 311 358 28,000  Level Miami Center
06:06PM 29.8103 -78.9650 202° Southwest 311 358 28,000  Level Miami Center
06:07PM 29.7286 -78.9967 199° South 316 364 28,000  Level Miami Center
06:08PM 29.6528 -79.0336 203° Southwest 316 364 28,000  Level Miami Center
06:09PM 29.5753 -79.0700 202° Southwest 311 358 28,000  Level Miami Center
06:10PM 29.5014 -79.1114 206° Southwest 305 351 28,000  Level Miami Center
06:11PM 29.4197 -79.1431 199° South 305 351 28,000  Level Miami Center
06:12PM 29.3439 -79.1797 203° Southwest 305 351 28,000  Level Miami Center
06:13PM 29.2619 -79.2136 200° South 310 357 28,000  Level Miami Center
06:14PM 29.1842 -79.2525 204° Southwest 310 357 28,000  Level Miami Center
06:15PM 29.1086 -79.2886 203° Southwest 310 357 28,000  Level Miami Center
06:16PM 29.0267 -79.3225 200° South 310 357 28,000  Level Miami Center
06:17PM 28.9447 -79.3586 201° Southwest 315 362 28,000 -420 Level Miami Center
06:18PM 28.8647 -79.3947 202° Southwest 315 362 27,200 -780 Descending Miami Center
06:19PM 28.7825 -79.4356 204° Southwest 315 362 26,500 -780 Descending Miami Center
06:20PM 28.6964 -79.4739 201° Southwest 315 362 25,700 -840 Descending Miami Center
06:21PM 28.6122 -79.5119 202° Southwest 320 368 24,900 -840 Descending Miami Center
06:22PM 28.5278 -79.5525 203° Southwest 320 368 24,100 -480 Descending Miami Center
06:23PM 28.4481 -79.5883 202° Southwest 320 368 24,000 -60 Descending Miami Center
06:24PM 28.3700 -79.6242 202° Southwest 310 357 24,000  Level Miami Center
06:25PM 28.2922 -79.6600 202° Southwest 310 357 24,000  Level Miami Center
06:26PM 28.2142 -79.6933 201° Southwest 310 357 24,000  Level Miami Center
06:27PM 28.1306 -79.7078 189° South 305 351 24,000  Level Miami Center
06:28PM 28.0467 -79.7222 189° South 305 351 24,000 -420 Level Miami Center
06:29PM 27.9608 -79.7364 188° South 305 351 23,200 -900 Descending Miami Center
06:30PM 27.8644 -79.7506 187° South 312 359 22,200 -900 Descending Miami Center
06:31PM 27.7806 -79.7672 190° South 313 360 21,400 -840 Descending Miami Center
06:32PM 27.6947 -79.7814 188° South 319 367 20,600 -900 Descending Miami Center
06:33PM 27.6153 -79.7933 188° South 319 367 19,700 -840 Descending Miami Center
06:34PM 27.5292 -79.8075 188° South 319 367 19,000 -360 Descending Miami Center
06:35PM 27.4414 -79.8217 188° South 304 350 19,000  Level Miami Center
06:36PM 27.3617 -79.8361 189° South 293 337 19,000  Level Miami Center
06:37PM 27.2842 -79.8481 188° South 293 337 19,000  Level Miami Center
06:38PM 27.2108 -79.8578 187° South 293 337 19,000 -300 Level Miami Center
06:39PM 27.1208 -79.8742 189° South 303 349 18,400 -720 Descending Miami Center
06:40PM 27.0389 -79.8883 189° South 303 349 17,600 -900 Descending Miami Center
06:41PM 26.9553 -79.9003 187° South 303 349 16,700 -960 Descending Miami Center
06:42PM 26.8733 -79.9144 189° South 303 349 15,700 -960 Descending Miami Center
06:43PM 26.8022 -79.9264 189° South 298 343 14,800 -1,020 Descending Miami Center
06:44PM 26.7142 -79.9381 187° South 292 336 13,700 -900 Descending Miami Center
06:45PM 26.6431 -79.9503 189° South 292 336 13,000 -420 Descending Miami Center
06:46PM 26.5781 -79.9625 190° South 270 311 13,000  Level Miami Center
06:46PM 26.5611 -79.9644 186° South 292 336 13,000 -600 Level Miami Center
06:47PM 26.5025 -79.9767 191° South 267 307 12,400 -900 Descending Miami Center
06:48PM 26.4228 -79.9886 188° South 279 321 11,500 -660 Descending Miami Center
06:49PM 26.3411 -80.0003 187° South 279 321 11,000 -300 Descending Miami Center
06:50PM 26.2761 -80.0125 190° South 258 297 11,000 -60 Level Miami Center
06:51PM 26.1964 -80.0311 192° South 258 297 10,900  Descending Miami Center
06:52PM 26.1269 -80.0503 194° South 251 289 11,000 -420 Climbing Miami Center
06:53PM 26.0619 -80.0692 195° South 260 299 10,200 -900 Descending Miami Center
06:54PM 25.9883 -80.0903 194° South 266 306 9,300 -900 Descending Miami Center
06:55PM 25.9125 -80.1092 193° South 263 303 8,300 -660 Descending Miami Center
06:56PM 25.8369 -80.1278 193° South 248 285 8,000 -180 Descending Miami Center
06:57PM 25.7742 -80.1353 186° South 231 266 8,000 -180 Level Miami Center
06:58PM 25.7114 -80.1453 188° South 238 274 7,700 -300 Descending Miami Center
07:00PM 25.5882 -80.1867 197° South  Level Estimated
07:07PM 25.3254 -80.2748 197° South  Level Estimated
07:08PM 25.3254 -80.2748 306° West  Level Estimated
07:09PM 25.3254 -80.2748 306° West  Level Estimated
07:10PM 25.3254 -80.2748 306° West  Level Estimated
07:11PM 25.3254 -80.2748 306° West  Level Estimated
07:12PM 25.3254 -80.2748 306° West  Level Estimated
07:13PM 25.3254 -80.2748 306° West  Level Estimated
07:14PM 25.3254 -80.2748 306° West  Level Estimated
07:15PM 25.3254 -80.2748 306° West  Level Estimated